createdAt,value
2023-07-18T00:04:26.812Z,19.87
2023-07-18T00:09:28.615Z,20.66
2023-07-18T00:14:31.078Z,21.30
2023-07-18T00:19:34.429Z,22.34
2023-07-18T00:24:36.255Z,21.53
2023-07-18T00:29:38.075Z,21.38
2023-07-18T00:34:42.013Z,21.92
2023-07-18T00:39:43.827Z,21.09
2023-07-18T00:44:45.550Z,20.72
2023-07-18T00:49:47.702Z,20.84
2023-07-18T00:54:49.669Z,21.66
2023-07-18T00:59:52.118Z,21.45
2023-07-18T01:04:53.908Z,20.31
2023-07-18T01:10:13.700Z,21.37
2023-07-18T01:15:15.451Z,16.42
2023-07-18T01:20:24.869Z,15.50
2023-07-18T01:25:27.902Z,17.16
2023-07-18T01:30:31.393Z,17.51
2023-07-18T01:35:33.714Z,18.75
2023-07-18T01:40:35.547Z,17.52
2023-07-18T01:45:38.588Z,19.01
2023-07-18T01:50:40.333Z,16.72
2023-07-18T01:55:42.687Z,18.72
2023-07-18T02:00:44.538Z,19.63
2023-07-18T02:05:46.299Z,19.47
2023-07-18T02:10:48.095Z,19.73
2023-07-18T02:15:50.031Z,20.35
2023-07-18T02:20:51.772Z,19.82
2023-07-18T02:25:54.299Z,20.30
2023-07-18T02:30:56.423Z,19.90
2023-07-18T02:35:58.270Z,18.80
2023-07-18T02:41:00.183Z,19.78
2023-07-18T02:46:02.032Z,19.86
2023-07-18T02:51:03.899Z,19.20
2023-07-18T02:56:05.809Z,19.02
2023-07-18T03:01:09.217Z,17.99
2023-07-18T03:06:10.960Z,18.31
2023-07-18T03:11:12.881Z,18.13
2023-07-18T03:16:14.751Z,18.63
2023-07-18T03:21:17.883Z,19.15
2023-07-18T03:26:19.914Z,19.88
2023-07-18T03:31:22.114Z,20.11
2023-07-18T03:36:24.140Z,19.72
2023-07-18T03:41:26.013Z,19.24
2023-07-18T03:46:27.771Z,18.52
2023-07-18T03:51:31.079Z,17.15
2023-07-18T03:56:39.388Z,19.19
2023-07-18T04:01:41.135Z,18.34
2023-07-18T04:06:45.085Z,17.22
2023-07-18T04:11:47.470Z,16.39
2023-07-18T04:16:49.247Z,15.83
2023-07-18T04:21:50.976Z,18.51
2023-07-18T04:26:52.712Z,18.04
2023-07-18T04:31:55.108Z,17.19
2023-07-18T04:36:56.933Z,16.32
2023-07-18T04:41:58.761Z,16.53
2023-07-18T04:47:00.601Z,15.81
2023-07-18T04:52:02.376Z,14.99
2023-07-18T04:57:06.658Z,15.96
2023-07-18T05:02:08.917Z,15.35
2023-07-18T05:07:10.630Z,15.82
2023-07-18T05:12:12.435Z,16.15
2023-07-18T05:17:14.506Z,17.89
2023-07-18T05:22:16.269Z,17.46
2023-07-18T05:27:19.039Z,16.45
2023-07-18T05:32:20.991Z,16.10
2023-07-18T05:37:26.019Z,16.34
2023-07-18T05:42:27.765Z,15.92
2023-07-18T05:47:30.053Z,17.14
2023-07-18T05:52:32.090Z,16.83
2023-07-18T05:57:33.995Z,16.80
2023-07-18T06:02:36.118Z,16.62
2023-07-18T06:07:38.029Z,18.10
2023-07-18T06:12:39.921Z,17.88
2023-07-18T06:17:41.689Z,18.07
2023-07-18T06:22:45.449Z,17.38
2023-07-18T06:27:47.476Z,17.92
2023-07-18T06:32:49.345Z,18.39
2023-07-18T06:37:51.530Z,17.97
2023-07-18T06:42:53.343Z,18.98
2023-07-18T06:47:55.109Z,18.44
2023-07-18T06:52:56.921Z,20.67
2023-07-18T06:57:58.656Z,19.32
2023-07-18T07:03:00.574Z,20.52
2023-07-18T07:08:02.366Z,19.79
2023-07-18T07:13:04.917Z,19.24
2023-07-18T07:18:07.361Z,20.01
2023-07-18T07:23:09.181Z,19.79
2023-07-18T07:28:11.047Z,21.20
2023-07-18T07:33:13.359Z,21.22
2023-07-18T07:38:16.250Z,20.23
2023-07-18T07:43:18.157Z,21.79
2023-07-18T07:48:19.918Z,20.18
2023-07-18T07:53:21.700Z,20.58
2023-07-18T07:58:23.414Z,20.36
2023-07-18T08:03:25.162Z,22.24
2023-07-18T08:08:26.931Z,20.61
2023-07-18T08:13:29.516Z,21.13
2023-07-18T08:18:31.281Z,22.89
2023-07-18T08:23:33.016Z,22.00
2023-07-18T08:28:34.768Z,22.50
2023-07-18T08:33:36.518Z,21.11
2023-07-18T08:38:38.508Z,22.08
2023-07-18T08:43:40.282Z,23.56
2023-07-18T08:48:46.061Z,22.23
2023-07-18T08:53:47.872Z,23.47
2023-07-18T08:58:49.806Z,24.21
2023-07-18T09:03:53.103Z,23.03
2023-07-18T09:08:59.340Z,23.48
2023-07-18T09:14:01.207Z,25.14
2023-07-18T09:19:03.971Z,23.75
2023-07-18T09:24:06.048Z,24.26
2023-07-18T09:29:12.237Z,23.47
2023-07-18T09:34:14.047Z,24.53
2023-07-18T09:39:15.846Z,25.92
2023-07-18T09:44:31.294Z,24.76
2023-07-18T09:54:44.786Z,23.83
2023-07-18T09:59:50.044Z,24.81
2023-07-18T10:04:51.901Z,23.76
2023-07-18T10:09:53.828Z,25.14
2023-07-18T10:15:01.028Z,25.17
2023-07-18T10:20:34.088Z,22.42
2023-07-18T10:25:39.313Z,23.29
2023-07-18T10:30:45.826Z,24.27
2023-07-18T10:35:49.325Z,23.02
2023-07-18T10:40:53.727Z,24.97
2023-07-18T10:45:55.573Z,25.28
2023-07-18T10:50:57.432Z,26.35
2023-07-18T10:55:59.156Z,26.56
2023-07-18T11:06:23.043Z,22.59
2023-07-18T11:11:24.708Z,24.25
2023-07-18T11:16:26.509Z,24.80
2023-07-18T11:21:29.302Z,24.85
2023-07-18T11:26:33.153Z,24.40
2023-07-18T11:31:43.632Z,24.17
2023-07-18T11:36:48.298Z,25.88
2023-07-18T11:41:52.980Z,25.33
2023-07-18T11:46:56.293Z,25.03
2023-07-18T11:51:58.171Z,25.27
2023-07-18T11:56:59.889Z,25.40
2023-07-18T12:02:02.826Z,24.74
2023-07-18T12:07:04.932Z,25.93
2023-07-18T12:12:07.041Z,24.88
2023-07-18T12:17:09.728Z,26.11
2023-07-18T12:22:14.540Z,26.11
2023-07-18T12:27:16.572Z,25.33
2023-07-18T12:32:18.268Z,26.47
2023-07-18T12:37:20.797Z,24.99
2023-07-18T12:42:22.468Z,26.33
2023-07-18T12:47:24.172Z,24.77
2023-07-18T12:52:25.884Z,26.80
2023-07-18T12:57:29.575Z,26.08
2023-07-18T13:02:33.206Z,26.55
2023-07-18T13:07:35.197Z,27.22
2023-07-18T13:12:37.030Z,27.07
2023-07-18T13:17:38.741Z,26.72
2023-07-18T13:22:40.509Z,26.91
2023-07-18T13:27:42.571Z,26.56
2023-07-18T13:32:45.230Z,25.65
2023-07-18T13:37:47.029Z,27.01
2023-07-18T13:42:48.720Z,27.46
2023-07-18T13:47:50.461Z,28.01
2023-07-18T13:52:53.009Z,27.17
2023-07-18T13:57:55.074Z,27.49
2023-07-18T14:02:56.807Z,25.77
2023-07-18T14:07:58.645Z,28.32
2023-07-18T14:13:00.316Z,27.77
2023-07-18T14:18:01.994Z,27.67
2023-07-18T14:23:04.032Z,27.65
2023-07-18T14:28:05.766Z,27.41
2023-07-18T14:33:07.672Z,27.00
2023-07-18T14:38:09.449Z,27.16
2023-07-18T14:43:11.667Z,26.93
2023-07-18T14:48:13.459Z,28.30
2023-07-18T14:53:15.681Z,28.42
2023-07-18T14:58:17.554Z,27.58
2023-07-18T15:03:19.471Z,27.25
2023-07-18T15:08:21.531Z,27.74
2023-07-18T15:13:23.222Z,28.06
2023-07-18T15:18:24.908Z,28.29
2023-07-18T15:23:26.576Z,27.83
2023-07-18T15:28:28.344Z,28.35
2023-07-18T15:33:30.123Z,28.09
2023-07-18T15:38:31.897Z,28.28
2023-07-18T15:43:33.643Z,27.53
2023-07-18T15:48:35.608Z,28.62
2023-07-18T15:53:37.693Z,27.34
2023-07-18T15:58:39.376Z,27.57
2023-07-18T16:03:41.275Z,27.58
2023-07-18T16:08:43.121Z,26.97
2023-07-18T16:13:47.023Z,27.75
2023-07-18T16:18:53.210Z,28.16
2023-07-18T16:23:54.874Z,26.69
2023-07-18T16:28:56.587Z,27.14
2023-07-18T16:33:58.315Z,26.98
2023-07-18T16:39:00.125Z,27.08
2023-07-18T16:44:01.835Z,27.42
2023-07-18T16:49:04.866Z,27.07
2023-07-18T16:54:06.593Z,26.90
2023-07-18T16:59:08.571Z,26.03
2023-07-18T17:04:10.485Z,27.30
2023-07-18T17:09:12.209Z,27.34
2023-07-18T17:14:13.929Z,24.98
2023-07-18T17:19:16.072Z,26.43
2023-07-18T17:24:18.168Z,26.23
2023-07-18T17:29:20.507Z,26.98
2023-07-18T17:34:22.176Z,27.36
2023-07-18T17:39:24.712Z,28.02
2023-07-18T17:44:26.616Z,27.80
2023-07-18T17:49:28.438Z,25.93
2023-07-18T17:54:30.209Z,26.50
2023-07-18T17:59:31.888Z,26.93
2023-07-18T18:04:33.664Z,26.72
2023-07-18T18:09:35.502Z,26.45
2023-07-18T18:14:38.333Z,26.96
2023-07-18T18:19:39.979Z,26.12
2023-07-18T18:24:42.326Z,24.73
2023-07-18T18:29:43.999Z,26.11
2023-07-18T18:35:00.989Z,26.26
2023-07-18T18:40:08.016Z,26.62
2023-07-18T18:45:10.041Z,25.40
2023-07-18T18:50:12.158Z,24.59
2023-07-18T18:55:20.412Z,24.94
2023-07-18T19:00:23.252Z,24.68
2023-07-18T19:05:25.016Z,23.72
2023-07-18T19:10:27.826Z,25.55
2023-07-18T19:15:29.762Z,25.12
2023-07-18T19:20:31.442Z,25.36
2023-07-18T19:25:33.260Z,24.44
2023-07-18T19:30:35.225Z,23.57
2023-07-18T19:35:37.319Z,24.88
2023-07-18T19:40:39.081Z,24.38
2023-07-18T19:45:40.909Z,25.81
2023-07-18T19:50:44.244Z,24.21
2023-07-18T19:55:46.452Z,24.87
2023-07-18T20:00:48.170Z,24.81
2023-07-18T20:05:49.982Z,23.85
2023-07-18T20:10:51.714Z,22.87
2023-07-18T20:15:55.402Z,24.54
2023-07-18T20:20:57.060Z,26.07
2023-07-18T20:26:00.051Z,23.80
2023-07-18T20:31:01.751Z,23.79
2023-07-18T20:36:03.627Z,24.39
2023-07-18T20:41:08.434Z,24.45
2023-07-18T20:46:14.088Z,23.78
2023-07-18T20:51:15.852Z,24.66
2023-07-18T20:56:17.617Z,24.33
2023-07-18T21:01:19.883Z,24.31
2023-07-18T21:06:21.928Z,23.84
2023-07-18T21:11:23.697Z,22.68
2023-07-18T21:16:25.580Z,23.05
2023-07-18T21:21:27.421Z,23.31
2023-07-18T21:26:29.373Z,22.55
2023-07-18T21:31:31.167Z,23.32
2023-07-18T21:36:32.932Z,23.95
2023-07-18T21:41:35.096Z,23.81
2023-07-18T21:46:36.882Z,22.48
2023-07-18T21:51:42.366Z,23.75
2023-07-18T21:56:44.196Z,22.80
2023-07-18T22:01:46.489Z,24.09
2023-07-18T22:06:48.332Z,23.19
2023-07-18T22:11:52.790Z,23.48
2023-07-18T22:16:54.530Z,23.91
2023-07-18T22:21:57.951Z,23.45
2023-07-18T22:26:59.661Z,22.58
2023-07-18T22:32:01.418Z,23.01
2023-07-18T22:37:03.190Z,21.91
2023-07-18T22:42:19.486Z,22.83
2023-07-18T22:47:21.210Z,22.78
2023-07-18T22:52:23.068Z,22.87
2023-07-18T22:57:24.767Z,22.48
2023-07-18T23:02:26.689Z,23.07
2023-07-18T23:07:28.411Z,23.46
2023-07-18T23:12:30.183Z,22.65
2023-07-18T23:17:31.873Z,23.17
2023-07-18T23:22:33.593Z,22.11
2023-07-18T23:27:35.339Z,22.44
2023-07-18T23:32:37.102Z,22.05
2023-07-18T23:37:38.959Z,23.10
2023-07-18T23:42:40.669Z,22.88
2023-07-18T23:47:42.380Z,22.38
2023-07-18T23:52:44.080Z,23.65
2023-07-18T23:57:45.839Z,22.80
